Time;durP1;ratioP1;P1;durP2;ratioP2;P2;SDS_P1;SDS_P2;PMS_P1;PMS_P2;Temp;Humidity;BMP_temperature;BMP_pressure;BME280_temperature;BME280_humidity;BME280_pressure;Samples;Min_cycle;Max_cycle;Signal;HPM_P1;HPM_P2
2021/01/02 00:01:02;;;;;;;30.88;19.23;;;4.10;99.90;;;;;;5024433;28;20053;-85
2021/01/02 00:03:50;;;;;;;30.40;19.15;;;4.00;99.90;;;;;;5040468;28;20099;-83
2021/01/02 00:06:27;;;;;;;33.78;19.00;;;4.10;99.90;;;;;;5024951;28;20046;-83
2021/01/02 00:09:06;;;;;;;31.13;18.50;;;4.10;99.90;;;;;;5022484;28;20041;-81
2021/01/02 00:12:21;;;;;;;30.52;18.60;;;4.10;99.90;;;;;;5021751;28;20038;-83
2021/01/02 00:15:04;;;;;;;30.65;17.20;;;4.10;99.90;;;;;;4972431;28;20058;-82
2021/01/02 00:17:39;;;;;;;27.35;17.65;;;4.10;99.90;;;;;;4965275;28;20051;-82
2021/01/02 00:20:23;;;;;;;29.25;16.58;;;4.10;99.90;;;;;;4973512;28;20046;-82
2021/01/02 00:22:54;;;;;;;27.35;17.35;;;4.10;99.90;;;;;;4963779;28;20075;-85
2021/01/02 00:25:32;;;;;;;31.80;16.38;;;4.10;99.90;;;;;;4972903;28;20109;-83
2021/01/02 00:28:29;;;;;;;27.75;16.75;;;4.10;99.90;;;;;;4960525;28;20143;-84
2021/01/02 00:31:01;;;;;;;27.80;15.75;;;4.10;99.90;;;;;;4945900;28;20050;-83
2021/01/02 00:33:58;;;;;;;23.67;14.50;;;4.20;99.90;;;;;;4967815;28;20189;-84
2021/01/02 00:36:44;;;;;;;25.33;14.55;;;4.10;99.90;;;;;;4973983;28;20046;-83
2021/01/02 00:39:20;;;;;;;22.00;14.20;;;4.10;99.90;;;;;;4966718;28;20478;-82
2021/01/02 00:41:48;;;;;;;23.63;14.40;;;4.10;99.90;;;;;;4970185;28;20089;-85
2021/01/02 00:44:15;;;;;;;23.65;14.25;;;4.80;99.90;;;;;;4950770;28;20070;-83
2021/01/02 00:46:43;;;;;;;26.02;14.40;;;4.60;99.90;;;;;;4958787;28;20482;-83
2021/01/02 00:49:10;;;;;;;26.35;14.48;;;4.40;99.90;;;;;;4966573;28;20394;-85
2021/01/02 00:51:41;;;;;;;26.00;15.45;;;4.20;99.90;;;;;;5010299;28;20050;-82
2021/01/02 00:54:23;;;;;;;24.65;14.40;;;4.20;99.90;;;;;;5028483;28;20420;-83
2021/01/02 00:57:01;;;;;;;25.13;14.23;;;4.20;99.90;;;;;;5027461;28;20548;-85
2021/01/02 01:00:01;;;;;;;27.52;13.50;;;4.10;99.90;;;;;;5029078;28;20102;-82
2021/01/02 01:02:57;;;;;;;23.02;13.63;;;4.20;99.90;;;;;;5011354;28;20057;-84
2021/01/02 01:05:26;;;;;;;22.40;13.75;;;4.10;99.90;;;;;;5026413;28;20053;-83
2021/01/02 01:07:55;;;;;;;25.67;13.18;;;4.20;99.90;;;;;;5042430;28;20042;-84
2021/01/02 01:10:27;;;;;;;19.92;13.35;;;4.10;99.90;;;;;;5029370;28;20041;-85
2021/01/02 01:13:09;;;;;;;21.38;13.40;;;4.10;99.90;;;;;;5027736;28;20041;-82
2021/01/02 01:15:35;;;;;;;22.77;13.32;;;4.10;99.90;;;;;;5028458;28;21065;-82
2021/01/02 01:18:28;;;;;;;22.52;13.77;;;4.20;99.90;;;;;;5031893;28;20037;-85
2021/01/02 01:20:59;;;;;;;24.38;13.48;;;4.10;99.90;;;;;;5034013;28;20037;-84
2021/01/02 01:23:50;;;;;;;21.13;13.63;;;4.10;99.90;;;;;;5029509;28;20042;-83
2021/01/02 01:26:37;;;;;;;19.60;12.35;;;4.10;99.90;;;;;;5028313;28;20396;-85
2021/01/02 01:29:03;;;;;;;29.02;12.25;;;4.10;99.90;;;;;;5046832;28;20108;-82
2021/01/02 01:31:38;;;;;;;20.13;11.70;;;4.20;99.90;;;;;;5032199;28;20053;-85
2021/01/02 01:34:09;;;;;;;21.63;11.77;;;4.10;99.90;;;;;;5031803;28;20516;-87
2021/01/02 01:36:35;;;;;;;19.65;11.43;;;4.20;99.90;;;;;;5031152;28;20068;-82
2021/01/02 01:39:04;;;;;;;16.60;11.35;;;4.10;99.90;;;;;;5026975;28;20462;-82
2021/01/02 01:41:42;;;;;;;18.48;11.38;;;4.20;99.90;;;;;;5029332;28;20042;-87
2021/01/02 01:44:09;;;;;;;21.02;11.00;;;4.20;99.90;;;;;;5012326;28;20081;-84
2021/01/02 01:46:36;;;;;;;19.70;10.77;;;4.20;99.90;;;;;;5030214;28;20071;-85
2021/01/02 01:49:06;;;;;;;20.38;10.90;;;4.20;99.90;;;;;;5030768;28;20124;-87
2021/01/02 01:51:59;;;;;;;14.88;10.23;;;4.20;99.90;;;;;;5029110;28;20037;-86
2021/01/02 01:55:05;;;;;;;15.63;9.55;;;4.20;99.90;;;;;;5029567;28;20388;-85
2021/01/02 01:57:38;;;;;;;17.77;9.60;;;4.20;99.90;;;;;;5006605;28;20057;-84
2021/01/02 02:00:11;;;;;;;19.20;10.10;;;4.20;99.90;;;;;;5007377;28;20204;-83
2021/01/02 02:02:46;;;;;;;17.77;9.88;;;4.20;99.90;;;;;;5007490;28;20054;-85
2021/01/02 02:05:18;;;;;;;20.23;10.13;;;4.20;99.90;;;;;;4991173;28;20042;-83
2021/01/02 02:08:03;;;;;;;14.02;9.02;;;4.20;99.90;;;;;;5006018;28;20045;-82
2021/01/02 02:10:35;;;;;;;18.50;10.18;;;4.20;99.90;;;;;;4990923;28;20072;-83
2021/01/02 02:13:11;;;;;;;14.95;8.75;;;4.10;99.90;;;;;;5007362;28;20117;-84
2021/01/02 02:15:57;;;;;;;15.60;9.35;;;4.20;99.90;;;;;;4989746;28;20061;-84
2021/01/02 02:18:28;;;;;;;15.18;9.00;;;4.20;99.90;;;;;;4995714;28;20080;-82
2021/01/02 02:20:57;;;;;;;18.52;9.43;;;4.20;99.90;;;;;;5005326;28;20053;-85
2021/01/02 02:23:35;;;;;;;17.95;9.60;;;4.10;99.90;;;;;;5005783;28;20118;-84
2021/01/02 02:26:04;;;;;;;20.75;9.75;;;4.10;99.90;;;;;;4966069;28;20053;-83
2021/01/02 02:28:47;;;;;;;20.75;9.90;;;4.00;99.90;;;;;;4990067;28;20122;-85
2021/01/02 02:31:16;;;;;;;19.98;10.60;;;4.00;99.90;;;;;;5006634;28;20042;-86
2021/01/02 02:33:58;;;;;;;16.25;10.43;;;4.00;99.90;;;;;;5012013;28;20061;-85
2021/01/02 02:36:25;;;;;;;22.25;11.02;;;4.00;99.90;;;;;;5028720;28;20049;-84
2021/01/02 02:38:52;;;;;;;18.33;11.25;;;4.10;99.90;;;;;;5028769;28;20047;-86
2021/01/02 02:41:22;;;;;;;17.73;11.02;;;4.00;99.90;;;;;;5028772;28;20037;-87
2021/01/02 02:43:52;;;;;;;17.88;10.88;;;4.00;99.90;;;;;;5028075;28;20044;-84
2021/01/02 02:46:21;;;;;;;23.73;11.50;;;3.90;99.90;;;;;;5026917;28;20041;-84
2021/01/02 02:48:51;;;;;;;21.95;11.27;;;3.90;99.90;;;;;;5029382;28;20380;-85
2021/01/02 02:51:22;;;;;;;21.48;11.18;;;3.90;99.90;;;;;;5029479;28;20606;-84
2021/01/02 02:53:49;;;;;;;18.83;10.38;;;4.00;99.90;;;;;;5029336;28;20037;-86
2021/01/02 02:56:16;;;;;;;16.52;10.95;;;3.90;99.90;;;;;;5026991;28;20040;-86
2021/01/02 02:58:42;;;;;;;17.35;10.00;;;3.90;99.90;;;;;;5028768;28;20096;-83
2021/01/02 03:01:08;;;;;;;17.08;10.38;;;3.80;99.90;;;;;;5028101;28;20037;-85
2021/01/02 03:03:33;;;;;;;19.60;10.75;;;4.20;99.90;;;;;;5027630;28;20044;-85
2021/01/02 03:05:59;;;;;;;20.50;11.18;;;3.80;99.90;;;;;;5027394;28;20044;-84
2021/01/02 03:08:26;;;;;;;17.95;10.32;;;3.90;99.90;;;;;;5026256;28;20064;-83
2021/01/02 03:10:53;;;;;;;17.75;10.45;;;3.70;99.90;;;;;;5028933;28;20777;-84
2021/01/02 03:13:19;;;;;;;21.35;11.15;;;3.70;99.90;;;;;;5028099;28;20500;-84
2021/01/02 03:15:45;;;;;;;20.05;10.43;;;3.60;99.90;;;;;;5029117;28;20065;-84
2021/01/02 03:18:11;;;;;;;22.08;10.75;;;3.70;99.90;;;;;;5043783;28;21731;-85
2021/01/02 03:20:37;;;;;;;20.05;10.60;;;3.50;99.90;;;;;;5028694;28;20096;-84
2021/01/02 03:23:03;;;;;;;21.63;11.10;;;3.50;99.90;;;;;;5027000;28;20563;-84
2021/01/02 03:25:29;;;;;;;18.30;11.32;;;3.40;99.90;;;;;;5026893;28;20091;-85
2021/01/02 03:27:57;;;;;;;21.98;11.90;;;3.30;99.90;;;;;;5028304;28;20061;-83
2021/01/02 03:30:26;;;;;;;17.88;10.95;;;3.30;99.90;;;;;;5028157;28;20044;-85
2021/01/02 03:32:52;;;;;;;20.08;10.85;;;3.20;99.90;;;;;;5026407;28;20033;-83
2021/01/02 03:35:18;;;;;;;18.55;10.43;;;3.20;99.90;;;;;;5028513;28;20041;-84
2021/01/02 03:37:47;;;;;;;22.90;10.40;;;3.10;99.90;;;;;;5028416;28;20041;-84
2021/01/02 03:40:17;;;;;;;21.08;11.23;;;3.00;99.90;;;;;;5041766;28;20091;-86
2021/01/02 03:42:47;;;;;;;15.20;10.88;;;2.90;99.90;;;;;;5027275;28;20038;-84
2021/01/02 03:45:15;;;;;;;18.77;11.52;;;3.00;99.90;;;;;;5026477;28;20034;-85
2021/01/02 03:47:46;;;;;;;16.70;11.10;;;3.00;99.90;;;;;;5026295;28;20037;-85
2021/01/02 03:50:12;;;;;;;20.77;11.30;;;2.90;99.90;;;;;;5027703;28;20033;-84
2021/01/02 03:52:39;;;;;;;23.38;11.73;;;2.80;99.90;;;;;;5027296;28;20127;-84
2021/01/02 03:55:06;;;;;;;21.45;12.25;;;2.80;99.90;;;;;;5024690;28;20050;-83
2021/01/02 03:57:33;;;;;;;18.33;11.05;;;2.80;99.90;;;;;;5026564;28;20033;-84
2021/01/02 03:59:59;;;;;;;19.80;11.25;;;2.70;99.90;;;;;;5028367;28;20171;-84
2021/01/02 04:02:26;;;;;;;23.52;11.38;;;2.70;99.90;;;;;;5025934;28;20163;-83
2021/01/02 04:04:52;;;;;;;27.00;11.95;;;2.70;99.90;;;;;;5027250;28;20045;-82
2021/01/02 04:07:17;;;;;;;25.13;11.13;;;2.80;99.90;;;;;;5027931;28;20111;-86
2021/01/02 04:09:43;;;;;;;25.38;11.73;;;2.60;99.90;;;;;;5029405;28;20484;-83
2021/01/02 04:12:09;;;;;;;20.25;11.00;;;2.60;99.90;;;;;;5024771;28;20127;-83
2021/01/02 04:14:35;;;;;;;21.50;10.82;;;2.60;99.90;;;;;;5010134;28;20046;-86
2021/01/02 04:17:00;;;;;;;23.25;11.38;;;2.50;99.90;;;;;;5032566;28;20147;-86
2021/01/02 04:19:26;;;;;;;15.68;10.60;;;2.60;99.90;;;;;;5034851;28;20033;-84
2021/01/02 04:21:52;;;;;;;21.48;11.80;;;2.50;99.90;;;;;;5051027;28;20522;-84
2021/01/02 04:24:17;;;;;;;19.17;10.85;;;2.50;99.90;;;;;;5031486;28;20120;-83
2021/01/02 04:26:43;;;;;;;20.02;11.02;;;2.50;99.90;;;;;;5030934;28;20397;-85
2021/01/02 04:29:09;;;;;;;21.33;11.68;;;2.40;99.90;;;;;;5031451;28;20471;-85
2021/01/02 04:31:37;;;;;;;22.77;11.65;;;2.50;99.90;;;;;;5031684;28;20473;-83
2021/01/02 04:34:04;;;;;;;18.35;10.68;;;2.50;99.90;;;;;;5028377;28;20061;-85
2021/01/02 04:36:30;;;;;;;21.35;11.48;;;2.50;99.90;;;;;;5029019;28;20048;-85
2021/01/02 04:38:57;;;;;;;20.92;10.65;;;2.40;99.90;;;;;;5031681;28;20035;-84
2021/01/02 04:41:22;;;;;;;23.20;11.52;;;2.30;99.90;;;;;;5030423;28;20488;-82
2021/01/02 04:43:49;;;;;;;20.50;10.80;;;2.30;99.90;;;;;;5046587;28;20034;-82
2021/01/02 04:46:16;;;;;;;21.92;11.52;;;2.40;99.90;;;;;;5031063;28;20061;-86
2021/01/02 04:48:48;;;;;;;22.73;12.20;;;2.40;99.90;;;;;;5030152;28;20794;-83
2021/01/02 04:51:15;;;;;;;24.75;11.95;;;2.30;99.90;;;;;;5030463;28;20120;-82
2021/01/02 04:53:41;;;;;;;24.45;11.88;;;2.30;99.90;;;;;;5030939;28;20075;-85
2021/01/02 04:56:07;;;;;;;22.90;13.20;;;2.30;99.90;;;;;;5031951;28;20400;-82
2021/01/02 04:58:51;;;;;;;28.83;14.10;;;2.30;99.90;;;;;;5043207;28;20057;-84
2021/01/02 05:01:19;;;;;;;27.17;13.65;;;2.40;99.90;;;;;;5029819;28;20033;-83
2021/01/02 05:03:48;;;;;;;26.85;13.90;;;2.40;99.90;;;;;;5031464;28;20120;-84
2021/01/02 05:06:21;;;;;;;29.38;13.90;;;2.40;99.90;;;;;;5029814;28;20476;-85
2021/01/02 05:08:50;;;;;;;26.88;12.98;;;2.70;99.90;;;;;;5029511;28;20045;-82
2021/01/02 05:11:18;;;;;;;25.42;12.88;;;2.50;99.90;;;;;;5031497;28;20056;-83
2021/01/02 05:13:44;;;;;;;22.38;12.43;;;2.60;99.90;;;;;;5029050;28;20057;-84
2021/01/02 05:16:31;;;;;;;22.75;12.82;;;2.60;99.90;;;;;;5028841;28;20041;-82
2021/01/02 05:18:59;;;;;;;19.88;11.32;;;2.70;99.90;;;;;;5029299;28;20064;-84
2021/01/02 05:21:26;;;;;;;30.95;11.63;;;2.50;99.90;;;;;;5030279;28;20108;-83
2021/01/02 05:24:17;;;;;;;24.30;11.15;;;2.50;99.90;;;;;;5030513;28;20505;-84
2021/01/02 05:26:51;;;;;;;18.75;10.77;;;2.40;99.90;;;;;;5028901;28;20029;-83
2021/01/02 05:29:24;;;;;;;20.77;10.90;;;2.40;99.90;;;;;;5030717;28;20076;-84
2021/01/02 05:31:56;;;;;;;19.70;10.95;;;2.40;99.90;;;;;;5026431;28;20117;-86
2021/01/02 05:34:28;;;;;;;20.95;11.55;;;2.40;99.90;;;;;;5028764;28;20103;-85
2021/01/02 05:37:08;;;;;;;25.23;12.13;;;2.40;99.90;;;;;;5026451;28;20048;-84
2021/01/02 05:39:38;;;;;;;25.42;13.10;;;2.40;99.90;;;;;;5026986;28;20045;-82
2021/01/02 05:42:05;;;;;;;25.23;13.25;;;2.40;99.90;;;;;;5030489;28;20041;-82
2021/01/02 05:44:38;;;;;;;24.15;13.07;;;2.50;99.90;;;;;;5029342;28;20579;-85
2021/01/02 05:47:05;;;;;;;31.38;13.27;;;2.50;99.90;;;;;;5029708;28;20048;-83
2021/01/02 05:49:35;;;;;;;27.05;13.38;;;2.60;99.90;;;;;;5030087;28;20045;-83
2021/01/02 05:52:08;;;;;;;28.40;14.07;;;2.50;99.90;;;;;;5041817;28;20045;-85
2021/01/02 05:54:36;;;;;;;26.27;13.82;;;2.60;99.90;;;;;;5029422;28;20037;-83
2021/01/02 05:57:04;;;;;;;32.00;13.38;;;2.60;99.90;;;;;;5028234;28;20115;-81
2021/01/02 05:59:31;;;;;;;23.05;12.85;;;2.60;99.90;;;;;;5030153;28;20064;-84
2021/01/02 06:01:58;;;;;;;27.40;14.88;;;2.80;99.90;;;;;;5027971;28;20038;-82
2021/01/02 06:04:23;;;;;;;43.55;14.63;;;2.70;99.90;;;;;;5028589;28;20037;-82
2021/01/02 06:07:06;;;;;;;24.40;14.23;;;2.80;99.90;;;;;;5045077;28;20037;-84
2021/01/02 06:09:35;;;;;;;25.30;13.23;;;2.90;99.90;;;;;;5025871;28;20745;-85
2021/01/02 06:12:04;;;;;;;29.38;13.45;;;2.80;99.90;;;;;;5029522;28;20124;-84
2021/01/02 06:14:33;;;;;;;28.63;14.13;;;2.90;99.90;;;;;;5027818;28;20180;-83
2021/01/02 06:17:04;;;;;;;34.85;15.40;;;3.00;99.90;;;;;;5029401;28;20041;-82
2021/01/02 06:19:31;;;;;;;28.33;14.65;;;2.90;99.90;;;;;;5029072;28;20464;-82
2021/01/02 06:21:57;;;;;;;30.88;14.63;;;2.90;99.90;;;;;;5029430;28;20041;-82
2021/01/02 06:24:23;;;;;;;28.50;14.20;;;3.40;99.90;;;;;;5028590;28;20055;-83
2021/01/02 06:26:51;;;;;;;30.52;14.30;;;3.00;99.90;;;;;;5031152;28;20037;-85
2021/01/02 06:29:17;;;;;;;32.25;13.65;;;3.10;99.90;;;;;;5026780;28;20124;-82
2021/01/02 06:31:43;;;;;;;25.13;13.38;;;3.10;99.90;;;;;;5028614;28;20179;-82
2021/01/02 06:34:11;;;;;;;24.33;12.60;;;3.10;99.90;;;;;;5029061;28;20041;-84
2021/01/02 06:36:39;;;;;;;23.60;12.50;;;3.10;99.90;;;;;;5029700;28;20168;-81
2021/01/02 06:39:20;;;;;;;29.50;13.43;;;3.10;99.90;;;;;;5027957;28;20653;-83
2021/01/02 06:41:47;;;;;;;26.02;13.60;;;3.20;99.90;;;;;;5027999;28;20056;-85
2021/01/02 06:44:50;;;;;;;27.45;13.70;;;3.30;99.90;;;;;;5027013;28;20088;-83
2021/01/02 06:47:15;;;;;;;25.65;12.63;;;3.20;99.90;;;;;;5029183;28;20038;-82
2021/01/02 06:49:42;;;;;;;26.35;13.10;;;3.30;99.90;;;;;;5029434;28;20487;-82
2021/01/02 06:52:10;;;;;;;29.90;13.85;;;3.20;99.90;;;;;;5028001;28;20041;-85
2021/01/02 06:54:35;;;;;;;25.00;13.35;;;3.30;99.90;;;;;;5028247;28;20080;-82
2021/01/02 06:57:04;;;;;;;27.08;13.20;;;3.30;99.90;;;;;;5029385;28;20037;-85
2021/01/02 06:59:30;;;;;;;33.13;13.60;;;3.20;99.90;;;;;;5029012;28;20547;-83
2021/01/02 07:01:56;;;;;;;22.42;13.70;;;3.40;99.90;;;;;;5028241;28;20076;-83
2021/01/02 07:04:36;;;;;;;35.22;13.68;;;3.30;99.90;;;;;;5026941;28;20041;-84
2021/01/02 07:07:04;;;;;;;31.90;14.27;;;3.30;99.90;;;;;;5027537;28;20037;-83
2021/01/02 07:09:30;;;;;;;27.50;13.70;;;3.30;99.90;;;;;;5027204;28;20136;-83
2021/01/02 07:12:10;;;;;;;24.08;13.43;;;3.30;99.90;;;;;;5028682;28;20484;-82
2021/01/02 07:14:36;;;;;;;26.40;13.55;;;3.20;99.90;;;;;;5026184;28;20052;-85
2021/01/02 07:17:10;;;;;;;20.98;12.70;;;3.20;99.90;;;;;;5029324;28;20042;-80
2021/01/02 07:19:44;;;;;;;23.08;11.45;;;3.20;99.90;;;;;;5030418;28;20752;-83
2021/01/02 07:22:16;;;;;;;19.30;12.03;;;3.30;99.90;;;;;;5021283;28;20045;-83
2021/01/02 07:24:44;;;;;;;20.17;11.98;;;3.30;99.90;;;;;;5043458;28;20041;-82
2021/01/02 07:27:16;;;;;;;22.65;12.48;;;3.20;99.90;;;;;;5027003;28;20146;-85
2021/01/02 07:29:50;;;;;;;21.52;12.70;;;3.30;99.90;;;;;;5028424;28;20052;-85
2021/01/02 07:32:29;;;;;;;20.50;12.55;;;3.20;99.90;;;;;;5024698;28;20041;-81
2021/01/02 07:35:01;;;;;;;22.50;12.32;;;3.20;99.90;;;;;;5026992;28;20104;-85
2021/01/02 07:37:29;;;;;;;22.15;12.43;;;3.20;99.90;;;;;;5027227;28;20468;-84
2021/01/02 07:39:57;;;;;;;28.63;13.10;;;3.10;99.90;;;;;;5025571;28;20037;-84
2021/01/02 07:42:25;;;;;;;31.98;13.02;;;3.20;99.90;;;;;;5026489;28;20492;-80
2021/01/02 07:45:21;;;;;;;29.55;13.40;;;3.20;99.90;;;;;;5026055;28;20602;-82
2021/01/02 07:47:50;;;;;;;26.17;13.25;;;3.20;99.90;;;;;;4985936;28;20062;-83
2021/01/02 07:50:18;;;;;;;29.17;14.23;;;3.20;99.90;;;;;;4986570;28;20042;-84
2021/01/02 07:52:48;;;;;;;27.52;13.63;;;3.20;99.90;;;;;;4985614;28;20054;-83
2021/01/02 07:55:14;;;;;;;23.60;13.63;;;3.40;99.90;;;;;;4985071;28;20054;-83
2021/01/02 07:57:40;;;;;;;25.85;13.70;;;3.20;99.90;;;;;;4986316;28;20046;-86
2021/01/02 08:00:08;;;;;;;24.15;13.48;;;3.20;99.90;;;;;;4975942;28;20042;-83
2021/01/02 08:02:39;;;;;;;25.88;13.85;;;3.20;99.90;;;;;;4985840;28;20623;-85
2021/01/02 08:05:17;;;;;;;25.38;13.80;;;3.20;99.90;;;;;;4972031;28;20136;-82
2021/01/02 08:07:58;;;;;;;23.63;13.88;;;3.20;99.90;;;;;;4986781;28;20042;-82
2021/01/02 08:10:25;;;;;;;23.63;14.07;;;3.20;99.90;;;;;;4971779;28;20219;-86
2021/01/02 08:12:56;;;;;;;29.67;15.82;;;3.20;99.90;;;;;;4972029;28;20086;-83
2021/01/02 08:15:36;;;;;;;29.95;14.40;;;3.20;99.90;;;;;;4972310;28;20116;-85
2021/01/02 08:18:09;;;;;;;34.22;14.55;;;3.10;99.90;;;;;;4955558;28;20115;-82
2021/01/02 08:20:36;;;;;;;28.77;14.25;;;3.20;99.90;;;;;;4987220;28;20104;-82
2021/01/02 08:23:10;;;;;;;17.98;10.73;;;3.30;99.90;;;;;;4971477;28;20054;-81
2021/01/02 08:25:36;;;;;;;30.45;13.82;;;3.30;99.90;;;;;;5022798;28;20040;-79
2021/01/02 08:28:03;;;;;;;27.40;13.48;;;3.40;99.90;;;;;;5032238;28;20037;-84
2021/01/02 08:30:29;;;;;;;26.13;13.43;;;3.30;99.90;;;;;;5027907;28;20116;-82
2021/01/02 08:32:56;;;;;;;26.23;13.85;;;3.20;99.90;;;;;;5025694;28;20124;-82
2021/01/02 08:35:33;;;;;;;23.70;14.13;;;3.20;99.90;;;;;;5024029;28;20484;-83
2021/01/02 08:38:13;;;;;;;23.58;13.90;;;3.20;99.90;;;;;;5027332;28;20068;-83
2021/01/02 08:40:46;;;;;;;27.50;13.88;;;3.20;99.90;;;;;;5027550;28;20124;-82
2021/01/02 08:43:26;;;;;;;30.00;13.55;;;3.20;99.90;;;;;;5040720;28;20054;-80
2021/01/02 08:46:00;;;;;;;20.50;12.73;;;3.20;99.90;;;;;;5025649;28;20373;-80
2021/01/02 08:48:28;;;;;;;25.63;13.45;;;3.30;99.90;;;;;;5041385;28;20037;-83
2021/01/02 08:50:54;;;;;;;27.20;13.88;;;3.30;99.90;;;;;;5027643;28;20048;-82
2021/01/02 08:53:32;;;;;;;28.33;14.07;;;3.40;99.90;;;;;;5019857;28;20042;-82
2021/01/02 08:55:58;;;;;;;22.02;13.27;;;3.30;99.90;;;;;;5018042;28;20042;-82
2021/01/02 08:58:31;;;;;;;28.73;13.60;;;3.30;99.90;;;;;;5027492;28;20033;-82
2021/01/02 09:00:57;;;;;;;26.08;13.73;;;3.30;99.90;;;;;;5026873;28;20496;-85
2021/01/02 09:03:23;;;;;;;28.20;13.85;;;3.40;99.90;;;;;;5025236;28;20049;-83
2021/01/02 09:05:49;;;;;;;22.10;13.27;;;3.80;99.90;;;;;;5027477;28;20050;-84
2021/01/02 09:08:19;;;;;;;28.55;13.18;;;3.50;99.90;;;;;;5029617;28;20552;-85
2021/01/02 09:10:46;;;;;;;26.40;14.15;;;3.50;99.90;;;;;;5031237;28;20120;-85
2021/01/02 09:13:20;;;;;;;23.23;13.43;;;3.60;99.90;;;;;;5030523;28;20037;-81
2021/01/02 09:15:49;;;;;;;23.98;13.23;;;3.50;99.90;;;;;;5025046;28;20042;-82
2021/01/02 09:18:19;;;;;;;23.75;12.50;;;3.60;99.90;;;;;;5029926;28;20084;-81
2021/01/02 09:20:45;;;;;;;22.02;13.70;;;3.70;99.90;;;;;;5030041;28;20481;-84
2021/01/02 09:23:11;;;;;;;27.67;13.80;;;3.70;99.90;;;;;;5030545;28;20045;-83
2021/01/02 09:25:39;;;;;;;26.40;13.40;;;3.80;99.90;;;;;;5029154;28;20064;-82
2021/01/02 09:28:14;;;;;;;28.48;14.50;;;3.80;99.90;;;;;;5030788;28;20373;-81
2021/01/02 09:30:40;;;;;;;28.63;14.20;;;3.70;99.90;;;;;;5027540;28;20073;-84
2021/01/02 09:33:06;;;;;;;29.10;13.70;;;3.90;99.90;;;;;;5030550;28;20058;-83
2021/01/02 09:35:32;;;;;;;23.05;13.55;;;3.90;99.90;;;;;;5029103;28;20068;-80
2021/01/02 09:37:58;;;;;;;28.75;13.93;;;4.00;99.90;;;;;;5029794;28;20061;-83
2021/01/02 09:40:24;;;;;;;31.35;14.32;;;3.90;99.90;;;;;;5031361;28;20037;-82
2021/01/02 09:42:50;;;;;;;30.48;15.13;;;3.90;99.90;;;;;;5030913;28;20049;-81
2021/01/02 09:45:16;;;;;;;29.65;15.02;;;3.90;99.90;;;;;;5029459;28;20040;-82
2021/01/02 09:47:42;;;;;;;29.13;15.77;;;3.80;99.90;;;;;;5030102;28;20124;-83
2021/01/02 09:50:08;;;;;;;28.40;14.85;;;4.00;99.90;;;;;;5031284;28;20145;-79
2021/01/02 09:52:35;;;;;;;29.50;14.57;;;3.80;99.90;;;;;;5046004;28;20063;-83
2021/01/02 09:55:00;;;;;;;36.78;14.30;;;4.00;99.90;;;;;;5012851;28;20078;-85
2021/01/02 09:57:26;;;;;;;24.67;14.43;;;3.90;99.90;;;;;;5025725;28;20065;-81
2021/01/02 09:59:52;;;;;;;27.48;13.95;;;4.30;99.90;;;;;;5030848;28;20121;-83
2021/01/02 10:02:19;;;;;;;33.28;14.82;;;4.00;99.90;;;;;;5030958;28;20514;-82
2021/01/02 10:04:47;;;;;;;36.97;14.63;;;4.00;99.90;;;;;;5031942;28;20041;-83
2021/01/02 10:07:14;;;;;;;30.42;12.88;;;4.10;99.90;;;;;;5030059;28;20049;-79
2021/01/02 10:09:47;;;;;;;36.42;14.75;;;4.20;99.90;;;;;;5031286;28;20072;-84
2021/01/02 10:12:14;;;;;;;30.02;13.75;;;4.40;99.90;;;;;;5030619;28;20049;-83
2021/01/02 10:14:41;;;;;;;35.72;14.68;;;4.40;99.90;;;;;;5029405;28;20513;-83
2021/01/02 10:17:08;;;;;;;25.65;14.95;;;4.90;99.90;;;;;;5029950;28;20080;-82
2021/01/02 10:19:35;;;;;;;29.73;13.15;;;4.40;99.90;;;;;;5049605;28;20067;-82
2021/01/02 10:22:02;;;;;;;57.20;13.23;;;4.50;99.90;;;;;;5016343;28;20447;-83
2021/01/02 10:24:30;;;;;;;48.25;14.60;;;4.50;99.90;;;;;;5030493;28;20381;-85
2021/01/02 10:26:56;;;;;;;156.73;14.35;;;4.40;99.90;;;;;;5028998;28;20124;-82
2021/01/02 10:29:22;;;;;;;55.55;14.05;;;4.80;99.90;;;;;;5029930;28;20068;-80
2021/01/02 10:31:48;;;;;;;76.53;12.45;;;4.40;99.90;;;;;;5028222;28;20049;-88
2021/01/02 10:34:15;;;;;;;58.05;13.40;;;4.30;99.90;;;;;;5030195;28;20057;-84
2021/01/02 10:36:44;;;;;;;37.47;13.23;;;4.30;99.90;;;;;;5030769;28;20511;-84
2021/01/02 10:39:10;;;;;;;28.05;13.05;;;4.30;99.90;;;;;;5031357;28;20046;-84
2021/01/02 10:41:36;;;;;;;50.10;13.32;;;4.30;99.90;;;;;;5031998;28;20045;-86
2021/01/02 10:44:01;;;;;;;59.85;13.85;;;4.30;99.90;;;;;;5029228;28;20408;-83
2021/01/02 10:46:27;;;;;;;38.92;12.15;;;4.40;99.90;;;;;;5029673;28;20064;-82
2021/01/02 10:48:53;;;;;;;22.85;11.68;;;4.30;99.90;;;;;;5031257;28;20068;-83
2021/01/02 10:51:19;;;;;;;76.85;11.90;;;4.10;99.90;;;;;;5031586;28;20137;-83
2021/01/02 10:53:46;;;;;;;48.05;12.35;;;4.20;99.90;;;;;;5031385;28;20130;-87
2021/01/02 10:56:17;;;;;;;52.42;12.93;;;4.30;99.90;;;;;;5029477;28;20111;-82
2021/01/02 10:58:43;;;;;;;52.53;11.57;;;4.30;99.90;;;;;;5029076;28;20108;-84
2021/01/02 11:01:09;;;;;;;39.65;11.95;;;4.20;99.90;;;;;;5028938;28;20029;-83
2021/01/02 11:03:36;;;;;;;26.75;10.98;;;4.30;99.90;;;;;;5027719;28;20588;-82
2021/01/02 11:06:07;;;;;;;60.35;12.70;;;4.30;99.90;;;;;;5029967;28;20052;-81
2021/01/02 11:08:37;;;;;;;45.28;12.20;;;4.30;99.90;;;;;;5030540;28;20499;-84
2021/01/02 11:11:04;;;;;;;45.92;12.60;;;4.30;99.90;;;;;;5030864;28;20103;-82
2021/01/02 11:13:30;;;;;;;23.42;13.27;;;4.30;99.90;;;;;;5030978;28;20492;-82
2021/01/02 11:15:56;;;;;;;31.73;12.13;;;4.40;99.90;;;;;;5029876;28;20064;-83
2021/01/02 11:18:21;;;;;;;26.95;12.68;;;4.40;99.90;;;;;;5029508;28;20057;-84
2021/01/02 11:20:48;;;;;;;26.30;12.65;;;4.40;99.90;;;;;;5031050;28;20140;-82
2021/01/02 11:23:20;;;;;;;27.17;13.75;;;4.40;99.90;;;;;;5030159;28;20443;-83
2021/01/02 11:25:46;;;;;;;30.83;12.82;;;4.40;99.90;;;;;;5030644;28;20160;-83
2021/01/02 11:28:13;;;;;;;28.13;12.75;;;4.50;99.90;;;;;;5030476;28;20033;-84
2021/01/02 11:30:43;;;;;;;27.92;13.27;;;4.50;99.90;;;;;;5027501;28;20517;-82
2021/01/02 11:33:09;;;;;;;21.52;12.18;;;4.60;99.90;;;;;;5029518;28;20111;-83
2021/01/02 11:35:34;;;;;;;21.27;12.00;;;4.60;99.90;;;;;;5030822;28;20045;-81
2021/01/02 11:38:00;;;;;;;23.63;12.07;;;4.50;99.90;;;;;;5028545;28;20045;-82
2021/01/02 11:40:26;;;;;;;28.33;11.38;;;4.60;99.90;;;;;;5030401;28;20050;-83
2021/01/02 11:42:54;;;;;;;20.88;11.30;;;4.60;99.90;;;;;;5029833;28;20045;-82
2021/01/02 11:45:39;;;;;;;19.00;11.35;;;4.60;99.90;;;;;;5029711;28;20057;-82
2021/01/02 11:48:05;;;;;;;27.90;12.73;;;4.60;99.90;;;;;;5028739;28;20056;-86
2021/01/02 11:50:30;;;;;;;22.00;12.27;;;4.60;99.90;;;;;;5027344;28;20053;-83
2021/01/02 11:52:56;;;;;;;30.08;13.15;;;4.70;99.90;;;;;;5029629;28;20103;-84
2021/01/02 11:55:22;;;;;;;19.67;11.45;;;4.80;99.90;;;;;;5026901;28;20049;-81
2021/01/02 11:57:48;;;;;;;24.05;13.20;;;4.80;99.90;;;;;;5029153;28;20045;-84
2021/01/02 12:00:34;;;;;;;19.77;12.20;;;4.80;99.90;;;;;;5028462;28;20084;-82
2021/01/02 12:03:00;;;;;;;20.65;12.27;;;4.80;99.90;;;;;;5028930;28;20084;-81
2021/01/02 12:05:25;;;;;;;22.08;11.82;;;4.90;99.90;;;;;;5029376;28;20049;-82
2021/01/02 12:07:51;;;;;;;17.33;11.55;;;4.80;99.90;;;;;;5030299;28;20068;-82
2021/01/02 12:10:17;;;;;;;17.83;10.52;;;4.80;99.90;;;;;;5030007;28;20034;-82
2021/01/02 12:12:44;;;;;;;14.23;10.02;;;4.90;99.90;;;;;;5030003;28;20068;-83
2021/01/02 12:15:11;;;;;;;11.93;9.70;;;4.90;99.90;;;;;;5030073;28;20073;-81
2021/01/02 12:17:38;;;;;;;12.27;9.77;;;4.80;99.90;;;;;;5028954;28;20053;-83
2021/01/02 12:20:04;;;;;;;13.38;9.50;;;4.80;99.90;;;;;;5028585;28;20033;-80
2021/01/02 12:22:30;;;;;;;13.85;9.45;;;4.70;99.90;;;;;;5025216;28;20042;-82
2021/01/02 12:24:56;;;;;;;16.40;11.05;;;4.80;99.90;;;;;;5028380;28;20071;-82
2021/01/02 12:27:22;;;;;;;16.67;11.38;;;4.70;99.90;;;;;;5029818;28;20550;-80
2021/01/02 12:29:47;;;;;;;18.25;11.63;;;4.80;99.90;;;;;;5030311;28;20141;-82
2021/01/02 12:32:13;;;;;;;20.00;11.70;;;4.70;99.90;;;;;;5028858;28;20447;-82
2021/01/02 12:34:43;;;;;;;21.77;12.30;;;4.80;99.90;;;;;;5032746;28;20068;-85
2021/01/02 12:37:14;;;;;;;20.63;10.98;;;4.70;99.90;;;;;;5027666;28;20484;-82
2021/01/02 12:39:42;;;;;;;21.63;11.85;;;5.30;99.90;;;;;;5026478;28;20120;-83
2021/01/02 12:42:09;;;;;;;20.23;12.10;;;5.10;99.90;;;;;;5027237;28;20053;-81
2021/01/02 12:44:34;;;;;;;20.50;12.52;;;5.20;99.90;;;;;;5033893;28;20069;-83
2021/01/02 12:47:12;;;;;;;24.35;12.20;;;5.00;99.90;;;;;;5032771;28;20114;-77
2021/01/02 12:49:42;;;;;;;25.88;12.10;;;4.90;99.90;;;;;;5044403;28;20085;-80
2021/01/02 12:52:08;;;;;;;25.40;13.05;;;4.90;99.90;;;;;;5030887;28;20473;-81
2021/01/02 12:54:38;;;;;;;18.92;12.05;;;4.80;99.90;;;;;;5046834;28;20045;-78